sensor_id;sensor_type;location;lat;lon;timestamp;temperature;humidity
24250;DHT22;12379;49.820;8.648;2023-09-07T00:01:34;19.20;99.90
24250;DHT22;12379;49.820;8.648;2023-09-07T00:03:59;19.20;99.90
24250;DHT22;12379;49.820;8.648;2023-09-07T00:06:25;19.20;99.90
24250;DHT22;12379;49.820;8.648;2023-09-07T00:08:52;19.30;99.90
24250;DHT22;12379;49.820;8.648;2023-09-07T00:11:17;19.20;99.90
24250;DHT22;12379;49.820;8.648;2023-09-07T00:13:43;19.20;99.90
24250;DHT22;12379;49.820;8.648;2023-09-07T00:16:09;19.20;99.90
24250;DHT22;12379;49.820;8.648;2023-09-07T00:18:36;19.20;99.90
24250;DHT22;12379;49.820;8.648;2023-09-07T00:21:01;19.20;99.90
24250;DHT22;12379;49.820;8.648;2023-09-07T00:23:28;19.20;99.90
24250;DHT22;12379;49.820;8.648;2023-09-07T00:25:53;19.20;99.90
24250;DHT22;12379;49.820;8.648;2023-09-07T00:28:19;19.20;99.90
24250;DHT22;12379;49.820;8.648;2023-09-07T00:30:44;19.20;99.90
24250;DHT22;12379;49.820;8.648;2023-09-07T00:33:10;19.20;99.90
24250;DHT22;12379;49.820;8.648;2023-09-07T00:35:36;19.20;99.90
24250;DHT22;12379;49.820;8.648;2023-09-07T00:38:02;19.20;99.90
24250;DHT22;12379;49.820;8.648;2023-09-07T00:40:28;19.10;99.90
24250;DHT22;12379;49.820;8.648;2023-09-07T00:42:54;19.10;99.90
24250;DHT22;12379;49.820;8.648;2023-09-07T00:45:20;19.10;99.90
24250;DHT22;12379;49.820;8.648;2023-09-07T00:47:45;19.10;99.90
24250;DHT22;12379;49.820;8.648;2023-09-07T00:50:11;19.10;99.90
24250;DHT22;12379;49.820;8.648;2023-09-07T00:52:42;19.10;99.90
24250;DHT22;12379;49.820;8.648;2023-09-07T00:55:09;19.10;99.90
24250;DHT22;12379;49.820;8.648;2023-09-07T00:57:35;19.10;99.90
24250;DHT22;12379;49.820;8.648;2023-09-07T01:00:02;19.10;99.90
24250;DHT22;12379;49.820;8.648;2023-09-07T01:02:29;19.10;99.90
24250;DHT22;12379;49.820;8.648;2023-09-07T01:04:55;19.10;99.90
24250;DHT22;12379;49.820;8.648;2023-09-07T01:07:25;19.10;99.90
24250;DHT22;12379;49.820;8.648;2023-09-07T01:09:59;19.10;99.90
24250;DHT22;12379;49.820;8.648;2023-09-07T01:12:26;19.10;99.90
24250;DHT22;12379;49.820;8.648;2023-09-07T01:14:52;19.10;99.90
24250;DHT22;12379;49.820;8.648;2023-09-07T01:17:18;19.20;99.90
24250;DHT22;12379;49.820;8.648;2023-09-07T01:19:48;19.20;99.90
24250;DHT22;12379;49.820;8.648;2023-09-07T01:22:19;19.20;99.90
24250;DHT22;12379;49.820;8.648;2023-09-07T01:24:45;19.20;99.90
24250;DHT22;12379;49.820;8.648;2023-09-07T01:27:11;19.20;99.90
24250;DHT22;12379;49.820;8.648;2023-09-07T01:29:38;19.20;99.90
24250;DHT22;12379;49.820;8.648;2023-09-07T01:32:05;19.20;99.90
24250;DHT22;12379;49.820;8.648;2023-09-07T01:34:30;19.10;99.90
24250;DHT22;12379;49.820;8.648;2023-09-07T01:36:56;19.00;99.90
24250;DHT22;12379;49.820;8.648;2023-09-07T01:39:22;19.00;99.90
24250;DHT22;12379;49.820;8.648;2023-09-07T01:41:47;18.90;99.90
24250;DHT22;12379;49.820;8.648;2023-09-07T01:44:13;18.80;99.90
24250;DHT22;12379;49.820;8.648;2023-09-07T01:46:39;18.70;99.90
24250;DHT22;12379;49.820;8.648;2023-09-07T01:49:04;18.70;99.90
24250;DHT22;12379;49.820;8.648;2023-09-07T01:51:30;18.80;99.90
24250;DHT22;12379;49.820;8.648;2023-09-07T01:53:55;18.80;99.90
24250;DHT22;12379;49.820;8.648;2023-09-07T01:56:22;18.80;99.90
24250;DHT22;12379;49.820;8.648;2023-09-07T01:58:47;18.70;99.90
24250;DHT22;12379;49.820;8.648;2023-09-07T02:01:27;18.70;99.90
24250;DHT22;12379;49.820;8.648;2023-09-07T02:03:54;19.00;99.90
24250;DHT22;12379;49.820;8.648;2023-09-07T02:06:20;19.20;99.90
24250;DHT22;12379;49.820;8.648;2023-09-07T02:08:46;19.40;99.90
24250;DHT22;12379;49.820;8.648;2023-09-07T02:13:42;19.40;99.90
24250;DHT22;12379;49.820;8.648;2023-09-07T02:16:08;19.40;99.90
24250;DHT22;12379;49.820;8.648;2023-09-07T02:18:35;19.30;99.90
24250;DHT22;12379;49.820;8.648;2023-09-07T02:21:05;19.20;99.90
24250;DHT22;12379;49.820;8.648;2023-09-07T02:23:31;19.10;99.90
24250;DHT22;12379;49.820;8.648;2023-09-07T02:25:57;19.10;99.90
24250;DHT22;12379;49.820;8.648;2023-09-07T02:28:24;19.10;99.90
24250;DHT22;12379;49.820;8.648;2023-09-07T02:30:50;19.10;99.90
24250;DHT22;12379;49.820;8.648;2023-09-07T02:33:16;19.10;99.90
24250;DHT22;12379;49.820;8.648;2023-09-07T02:35:41;19.10;99.90
24250;DHT22;12379;49.820;8.648;2023-09-07T02:38:07;19.10;99.90
24250;DHT22;12379;49.820;8.648;2023-09-07T02:40:32;19.00;99.90
24250;DHT22;12379;49.820;8.648;2023-09-07T02:42:58;19.00;99.90
24250;DHT22;12379;49.820;8.648;2023-09-07T02:45:23;18.90;99.90
24250;DHT22;12379;49.820;8.648;2023-09-07T02:47:49;18.90;99.90
24250;DHT22;12379;49.820;8.648;2023-09-07T02:50:16;18.90;99.90
24250;DHT22;12379;49.820;8.648;2023-09-07T02:52:43;18.90;99.90
24250;DHT22;12379;49.820;8.648;2023-09-07T02:55:08;19.00;99.90
24250;DHT22;12379;49.820;8.648;2023-09-07T02:57:35;18.90;99.90
24250;DHT22;12379;49.820;8.648;2023-09-07T03:00:00;19.00;99.90
24250;DHT22;12379;49.820;8.648;2023-09-07T03:02:27;19.00;99.90
24250;DHT22;12379;49.820;8.648;2023-09-07T03:04:54;18.90;99.90
24250;DHT22;12379;49.820;8.648;2023-09-07T03:07:20;18.90;99.90
24250;DHT22;12379;49.820;8.648;2023-09-07T03:09:45;18.90;99.90
24250;DHT22;12379;49.820;8.648;2023-09-07T03:12:11;18.90;99.90
24250;DHT22;12379;49.820;8.648;2023-09-07T03:14:36;18.90;99.90
24250;DHT22;12379;49.820;8.648;2023-09-07T03:17:03;18.90;99.90
24250;DHT22;12379;49.820;8.648;2023-09-07T03:19:29;18.80;99.90
24250;DHT22;12379;49.820;8.648;2023-09-07T03:21:54;18.70;99.90
24250;DHT22;12379;49.820;8.648;2023-09-07T03:24:20;18.60;99.90
24250;DHT22;12379;49.820;8.648;2023-09-07T03:26:46;18.50;99.90
24250;DHT22;12379;49.820;8.648;2023-09-07T03:29:11;18.40;99.90
24250;DHT22;12379;49.820;8.648;2023-09-07T03:31:37;18.30;99.90
24250;DHT22;12379;49.820;8.648;2023-09-07T03:34:02;18.20;99.90
24250;DHT22;12379;49.820;8.648;2023-09-07T03:36:28;18.00;99.90
24250;DHT22;12379;49.820;8.648;2023-09-07T03:38:53;17.90;99.90
24250;DHT22;12379;49.820;8.648;2023-09-07T03:41:22;17.80;99.90
24250;DHT22;12379;49.820;8.648;2023-09-07T03:43:47;17.70;99.90
24250;DHT22;12379;49.820;8.648;2023-09-07T03:46:13;17.60;99.90
24250;DHT22;12379;49.820;8.648;2023-09-07T03:48:38;17.60;99.90
24250;DHT22;12379;49.820;8.648;2023-09-07T03:51:07;17.50;99.90
24250;DHT22;12379;49.820;8.648;2023-09-07T03:53:33;17.50;99.90
24250;DHT22;12379;49.820;8.648;2023-09-07T03:55:58;17.40;99.90
24250;DHT22;12379;49.820;8.648;2023-09-07T03:58:24;17.50;99.90
24250;DHT22;12379;49.820;8.648;2023-09-07T04:00:49;17.50;99.90
24250;DHT22;12379;49.820;8.648;2023-09-07T04:03:15;17.70;99.90
24250;DHT22;12379;49.820;8.648;2023-09-07T04:05:40;17.80;99.90
24250;DHT22;12379;49.820;8.648;2023-09-07T04:08:06;17.90;99.90
24250;DHT22;12379;49.820;8.648;2023-09-07T04:10:32;17.90;99.90
24250;DHT22;12379;49.820;8.648;2023-09-07T04:12:58;17.90;99.90
24250;DHT22;12379;49.820;8.648;2023-09-07T04:15:23;17.80;99.90
24250;DHT22;12379;49.820;8.648;2023-09-07T04:17:50;17.70;99.90
24250;DHT22;12379;49.820;8.648;2023-09-07T04:20:16;17.70;99.90
24250;DHT22;12379;49.820;8.648;2023-09-07T04:22:42;17.70;99.90
24250;DHT22;12379;49.820;8.648;2023-09-07T04:25:08;17.70;99.90
24250;DHT22;12379;49.820;8.648;2023-09-07T04:27:34;17.70;99.90
24250;DHT22;12379;49.820;8.648;2023-09-07T04:29:59;17.70;99.90
24250;DHT22;12379;49.820;8.648;2023-09-07T04:32:26;17.70;99.90
24250;DHT22;12379;49.820;8.648;2023-09-07T04:34:56;17.70;99.90
24250;DHT22;12379;49.820;8.648;2023-09-07T04:37:24;17.70;99.90
24250;DHT22;12379;49.820;8.648;2023-09-07T04:39:51;17.60;99.90
24250;DHT22;12379;49.820;8.648;2023-09-07T04:42:18;17.60;99.90
24250;DHT22;12379;49.820;8.648;2023-09-07T04:44:44;17.60;99.90
24250;DHT22;12379;49.820;8.648;2023-09-07T04:47:10;17.60;99.90
24250;DHT22;12379;49.820;8.648;2023-09-07T04:49:36;17.50;99.90
24250;DHT22;12379;49.820;8.648;2023-09-07T04:52:02;17.50;99.90
24250;DHT22;12379;49.820;8.648;2023-09-07T04:54:27;17.60;99.90
24250;DHT22;12379;49.820;8.648;2023-09-07T04:56:53;17.60;99.90
24250;DHT22;12379;49.820;8.648;2023-09-07T04:59:19;17.60;99.90
24250;DHT22;12379;49.820;8.648;2023-09-07T05:01:53;17.70;99.90
24250;DHT22;12379;49.820;8.648;2023-09-07T05:04:19;17.70;99.90
24250;DHT22;12379;49.820;8.648;2023-09-07T05:06:45;17.70;99.90
24250;DHT22;12379;49.820;8.648;2023-09-07T05:09:10;17.70;99.90
24250;DHT22;12379;49.820;8.648;2023-09-07T05:11:36;17.70;99.90
24250;DHT22;12379;49.820;8.648;2023-09-07T05:14:02;17.70;99.90
24250;DHT22;12379;49.820;8.648;2023-09-07T05:16:28;17.60;99.90
24250;DHT22;12379;49.820;8.648;2023-09-07T05:18:53;17.50;99.90
24250;DHT22;12379;49.820;8.648;2023-09-07T05:21:19;17.50;99.90
24250;DHT22;12379;49.820;8.648;2023-09-07T05:23:46;17.50;99.90
24250;DHT22;12379;49.820;8.648;2023-09-07T05:26:12;17.60;99.90
24250;DHT22;12379;49.820;8.648;2023-09-07T05:28:40;17.60;99.90
24250;DHT22;12379;49.820;8.648;2023-09-07T05:31:07;17.60;99.90
24250;DHT22;12379;49.820;8.648;2023-09-07T05:33:33;17.60;99.90
24250;DHT22;12379;49.820;8.648;2023-09-07T05:35:59;17.60;99.90
24250;DHT22;12379;49.820;8.648;2023-09-07T05:38:24;17.60;99.90
24250;DHT22;12379;49.820;8.648;2023-09-07T05:40:50;17.60;99.90
24250;DHT22;12379;49.820;8.648;2023-09-07T05:43:19;17.60;99.90
24250;DHT22;12379;49.820;8.648;2023-09-07T05:45:45;17.60;99.90
24250;DHT22;12379;49.820;8.648;2023-09-07T05:48:11;17.60;99.90
24250;DHT22;12379;49.820;8.648;2023-09-07T05:50:38;17.70;99.90
24250;DHT22;12379;49.820;8.648;2023-09-07T05:53:04;17.80;99.90
24250;DHT22;12379;49.820;8.648;2023-09-07T05:55:30;17.80;99.90
24250;DHT22;12379;49.820;8.648;2023-09-07T05:57:56;17.90;99.90
24250;DHT22;12379;49.820;8.648;2023-09-07T06:00:22;18.00;99.90
24250;DHT22;12379;49.820;8.648;2023-09-07T06:02:49;18.10;99.90
24250;DHT22;12379;49.820;8.648;2023-09-07T06:05:15;18.20;99.90
24250;DHT22;12379;49.820;8.648;2023-09-07T06:07:40;18.30;99.90
24250;DHT22;12379;49.820;8.648;2023-09-07T06:10:06;18.40;99.90
24250;DHT22;12379;49.820;8.648;2023-09-07T06:12:32;18.50;99.90
24250;DHT22;12379;49.820;8.648;2023-09-07T06:14:59;18.60;99.90
24250;DHT22;12379;49.820;8.648;2023-09-07T06:17:24;18.60;99.90
24250;DHT22;12379;49.820;8.648;2023-09-07T06:19:50;18.70;99.90
24250;DHT22;12379;49.820;8.648;2023-09-07T06:22:15;18.70;99.90
24250;DHT22;12379;49.820;8.648;2023-09-07T06:24:41;18.80;99.90
24250;DHT22;12379;49.820;8.648;2023-09-07T06:27:06;18.90;99.90
24250;DHT22;12379;49.820;8.648;2023-09-07T06:29:32;19.00;99.90
24250;DHT22;12379;49.820;8.648;2023-09-07T06:31:57;19.10;99.90
24250;DHT22;12379;49.820;8.648;2023-09-07T06:34:24;19.30;99.90
24250;DHT22;12379;49.820;8.648;2023-09-07T06:36:49;19.40;99.90
24250;DHT22;12379;49.820;8.648;2023-09-07T06:39:15;19.40;99.90
24250;DHT22;12379;49.820;8.648;2023-09-07T06:41:40;19.50;99.90
24250;DHT22;12379;49.820;8.648;2023-09-07T06:44:07;19.70;99.90
24250;DHT22;12379;49.820;8.648;2023-09-07T06:46:33;19.80;99.90
24250;DHT22;12379;49.820;8.648;2023-09-07T06:48:58;20.00;99.90
24250;DHT22;12379;49.820;8.648;2023-09-07T06:51:24;20.50;99.90
24250;DHT22;12379;49.820;8.648;2023-09-07T06:53:50;21.50;99.90
24250;DHT22;12379;49.820;8.648;2023-09-07T06:56:15;22.70;99.90
24250;DHT22;12379;49.820;8.648;2023-09-07T06:58:41;24.00;99.90
24250;DHT22;12379;49.820;8.648;2023-09-07T07:01:07;24.70;99.90
24250;DHT22;12379;49.820;8.648;2023-09-07T07:03:33;25.30;99.90
24250;DHT22;12379;49.820;8.648;2023-09-07T07:06:00;25.70;99.90
24250;DHT22;12379;49.820;8.648;2023-09-07T07:08:25;26.20;99.90
24250;DHT22;12379;49.820;8.648;2023-09-07T07:10:51;26.40;98.60
24250;DHT22;12379;49.820;8.648;2023-09-07T07:13:16;26.40;98.20
24250;DHT22;12379;49.820;8.648;2023-09-07T07:15:42;26.60;97.90
24250;DHT22;12379;49.820;8.648;2023-09-07T07:18:08;26.50;97.30
24250;DHT22;12379;49.820;8.648;2023-09-07T07:20:38;26.70;97.30
24250;DHT22;12379;49.820;8.648;2023-09-07T07:23:04;26.80;97.50
24250;DHT22;12379;49.820;8.648;2023-09-07T07:25:29;27.10;96.40
24250;DHT22;12379;49.820;8.648;2023-09-07T07:28:01;27.50;96.60
24250;DHT22;12379;49.820;8.648;2023-09-07T07:30:34;27.80;95.80
24250;DHT22;12379;49.820;8.648;2023-09-07T07:33:00;28.10;95.00
24250;DHT22;12379;49.820;8.648;2023-09-07T07:35:25;28.30;95.50
24250;DHT22;12379;49.820;8.648;2023-09-07T07:37:51;28.90;92.80
24250;DHT22;12379;49.820;8.648;2023-09-07T07:40:17;28.60;92.30
24250;DHT22;12379;49.820;8.648;2023-09-07T07:42:47;28.50;92.10
24250;DHT22;12379;49.820;8.648;2023-09-07T07:45:13;28.20;92.30
24250;DHT22;12379;49.820;8.648;2023-09-07T07:47:40;29.00;92.50
24250;DHT22;12379;49.820;8.648;2023-09-07T07:50:07;28.90;92.10
24250;DHT22;12379;49.820;8.648;2023-09-07T07:52:32;28.90;91.50
24250;DHT22;12379;49.820;8.648;2023-09-07T07:54:59;29.20;91.10
24250;DHT22;12379;49.820;8.648;2023-09-07T07:57:24;29.60;90.30
24250;DHT22;12379;49.820;8.648;2023-09-07T07:59:50;29.90;90.30
24250;DHT22;12379;49.820;8.648;2023-09-07T08:02:15;30.00;88.20
24250;DHT22;12379;49.820;8.648;2023-09-07T08:04:41;29.90;89.50
24250;DHT22;12379;49.820;8.648;2023-09-07T08:07:07;29.90;87.70
24250;DHT22;12379;49.820;8.648;2023-09-07T08:09:34;29.70;88.00
24250;DHT22;12379;49.820;8.648;2023-09-07T08:12:00;30.00;87.30
24250;DHT22;12379;49.820;8.648;2023-09-07T08:14:28;30.60;86.30
24250;DHT22;12379;49.820;8.648;2023-09-07T08:16:54;30.70;85.90
24250;DHT22;12379;49.820;8.648;2023-09-07T08:19:23;30.60;83.00
24250;DHT22;12379;49.820;8.648;2023-09-07T08:21:48;30.50;83.80
24250;DHT22;12379;49.820;8.648;2023-09-07T08:24:14;30.10;86.10
24250;DHT22;12379;49.820;8.648;2023-09-07T08:26:40;30.70;83.90
24250;DHT22;12379;49.820;8.648;2023-09-07T08:29:05;30.80;81.70
24250;DHT22;12379;49.820;8.648;2023-09-07T08:31:32;30.30;81.30
24250;DHT22;12379;49.820;8.648;2023-09-07T08:34:00;30.10;83.60
24250;DHT22;12379;49.820;8.648;2023-09-07T08:36:26;30.10;83.90
24250;DHT22;12379;49.820;8.648;2023-09-07T08:38:53;30.40;82.40
24250;DHT22;12379;49.820;8.648;2023-09-07T08:41:20;30.50;81.30
24250;DHT22;12379;49.820;8.648;2023-09-07T08:43:46;30.40;81.60
24250;DHT22;12379;49.820;8.648;2023-09-07T08:46:19;29.90;81.60
24250;DHT22;12379;49.820;8.648;2023-09-07T08:48:47;30.10;81.70
24250;DHT22;12379;49.820;8.648;2023-09-07T08:51:18;30.00;83.40
24250;DHT22;12379;49.820;8.648;2023-09-07T08:53:44;30.30;81.70
24250;DHT22;12379;49.820;8.648;2023-09-07T08:56:12;30.90;80.70
24250;DHT22;12379;49.820;8.648;2023-09-07T08:58:44;31.20;76.90
24250;DHT22;12379;49.820;8.648;2023-09-07T09:01:15;31.20;77.20
24250;DHT22;12379;49.820;8.648;2023-09-07T09:03:42;30.60;78.20
24250;DHT22;12379;49.820;8.648;2023-09-07T09:06:08;30.10;80.50
24250;DHT22;12379;49.820;8.648;2023-09-07T09:08:49;30.00;80.90
24250;DHT22;12379;49.820;8.648;2023-09-07T09:11:15;29.80;80.90
24250;DHT22;12379;49.820;8.648;2023-09-07T09:13:42;30.00;81.20
24250;DHT22;12379;49.820;8.648;2023-09-07T09:16:08;30.00;82.00
24250;DHT22;12379;49.820;8.648;2023-09-07T09:18:33;30.00;80.90
24250;DHT22;12379;49.820;8.648;2023-09-07T09:20:59;30.50;79.20
24250;DHT22;12379;49.820;8.648;2023-09-07T09:23:35;31.10;77.10
24250;DHT22;12379;49.820;8.648;2023-09-07T09:26:01;30.80;75.90
24250;DHT22;12379;49.820;8.648;2023-09-07T09:28:30;30.70;76.90
24250;DHT22;12379;49.820;8.648;2023-09-07T09:30:57;30.80;78.10
24250;DHT22;12379;49.820;8.648;2023-09-07T09:33:23;30.20;79.00
24250;DHT22;12379;49.820;8.648;2023-09-07T09:35:49;30.10;79.90
24250;DHT22;12379;49.820;8.648;2023-09-07T09:38:15;30.70;79.30
24250;DHT22;12379;49.820;8.648;2023-09-07T09:40:42;30.70;78.30
24250;DHT22;12379;49.820;8.648;2023-09-07T09:43:08;30.40;78.60
24250;DHT22;12379;49.820;8.648;2023-09-07T09:45:34;30.70;79.80
24250;DHT22;12379;49.820;8.648;2023-09-07T09:48:01;30.80;78.20
24250;DHT22;12379;49.820;8.648;2023-09-07T09:50:28;30.40;77.90
24250;DHT22;12379;49.820;8.648;2023-09-07T09:52:55;30.40;79.10
24250;DHT22;12379;49.820;8.648;2023-09-07T09:55:22;30.70;78.20
24250;DHT22;12379;49.820;8.648;2023-09-07T09:57:47;31.20;75.80
24250;DHT22;12379;49.820;8.648;2023-09-07T10:00:14;30.80;76.90
24250;DHT22;12379;49.820;8.648;2023-09-07T10:02:51;30.60;78.00
24250;DHT22;12379;49.820;8.648;2023-09-07T10:05:20;30.80;77.60
24250;DHT22;12379;49.820;8.648;2023-09-07T10:07:48;31.00;75.60
24250;DHT22;12379;49.820;8.648;2023-09-07T10:10:15;30.50;76.40
24250;DHT22;12379;49.820;8.648;2023-09-07T10:12:45;30.00;77.10
24250;DHT22;12379;49.820;8.648;2023-09-07T10:15:26;29.20;79.20
24250;DHT22;12379;49.820;8.648;2023-09-07T10:18:13;28.90;81.90
24250;DHT22;12379;49.820;8.648;2023-09-07T10:20:58;29.10;81.10
24250;DHT22;12379;49.820;8.648;2023-09-07T10:23:38;28.80;83.10
24250;DHT22;12379;49.820;8.648;2023-09-07T10:26:09;28.80;83.70
24250;DHT22;12379;49.820;8.648;2023-09-07T10:28:35;28.90;83.30
24250;DHT22;12379;49.820;8.648;2023-09-07T10:31:03;28.70;82.90
24250;DHT22;12379;49.820;8.648;2023-09-07T10:33:30;28.50;82.90
24250;DHT22;12379;49.820;8.648;2023-09-07T10:35:55;28.20;82.90
24250;DHT22;12379;49.820;8.648;2023-09-07T10:38:22;28.20;84.70
24250;DHT22;12379;49.820;8.648;2023-09-07T10:40:54;28.20;85.00
24250;DHT22;12379;49.820;8.648;2023-09-07T10:43:20;28.40;83.80
24250;DHT22;12379;49.820;8.648;2023-09-07T10:45:45;28.30;81.50
24250;DHT22;12379;49.820;8.648;2023-09-07T10:48:12;28.10;82.10
24250;DHT22;12379;49.820;8.648;2023-09-07T10:50:46;28.00;84.20
24250;DHT22;12379;49.820;8.648;2023-09-07T10:53:15;27.90;83.30
24250;DHT22;12379;49.820;8.648;2023-09-07T10:55:49;27.80;84.50
24250;DHT22;12379;49.820;8.648;2023-09-07T10:58:29;27.90;83.80
24250;DHT22;12379;49.820;8.648;2023-09-07T11:00:57;27.80;84.20
24250;DHT22;12379;49.820;8.648;2023-09-07T11:03:24;27.50;83.40
24250;DHT22;12379;49.820;8.648;2023-09-07T11:05:55;27.40;84.30
24250;DHT22;12379;49.820;8.648;2023-09-07T11:08:28;27.30;84.30
24250;DHT22;12379;49.820;8.648;2023-09-07T11:10:54;27.30;85.00
24250;DHT22;12379;49.820;8.648;2023-09-07T11:13:21;27.30;84.90
24250;DHT22;12379;49.820;8.648;2023-09-07T11:15:49;27.30;84.50
24250;DHT22;12379;49.820;8.648;2023-09-07T11:18:20;27.20;83.70
24250;DHT22;12379;49.820;8.648;2023-09-07T11:20:46;27.20;84.00
24250;DHT22;12379;49.820;8.648;2023-09-07T11:23:12;27.20;84.00
24250;DHT22;12379;49.820;8.648;2023-09-07T11:45:40;27.50;84.10
24250;DHT22;12379;49.820;8.648;2023-09-07T11:48:06;27.60;83.90
24250;DHT22;12379;49.820;8.648;2023-09-07T11:50:36;27.70;83.50
24250;DHT22;12379;49.820;8.648;2023-09-07T11:53:02;27.70;82.70
24250;DHT22;12379;49.820;8.648;2023-09-07T11:55:27;27.70;81.90
24250;DHT22;12379;49.820;8.648;2023-09-07T11:57:54;27.80;81.90
24250;DHT22;12379;49.820;8.648;2023-09-07T12:00:31;27.80;81.00
24250;DHT22;12379;49.820;8.648;2023-09-07T12:02:57;27.90;81.20
24250;DHT22;12379;49.820;8.648;2023-09-07T12:05:23;27.80;80.90
24250;DHT22;12379;49.820;8.648;2023-09-07T12:07:59;27.80;81.30
24250;DHT22;12379;49.820;8.648;2023-09-07T12:10:25;27.80;81.80
24250;DHT22;12379;49.820;8.648;2023-09-07T12:12:51;27.90;81.30
24250;DHT22;12379;49.820;8.648;2023-09-07T12:15:16;28.00;80.90
24250;DHT22;12379;49.820;8.648;2023-09-07T12:17:42;28.10;81.90
24250;DHT22;12379;49.820;8.648;2023-09-07T12:20:09;28.10;82.40
24250;DHT22;12379;49.820;8.648;2023-09-07T12:22:36;28.20;81.80
24250;DHT22;12379;49.820;8.648;2023-09-07T12:25:05;28.30;82.90
24250;DHT22;12379;49.820;8.648;2023-09-07T12:27:35;28.40;80.10
24250;DHT22;12379;49.820;8.648;2023-09-07T12:30:03;28.50;77.40
24250;DHT22;12379;49.820;8.648;2023-09-07T12:32:34;28.50;77.30
24250;DHT22;12379;49.820;8.648;2023-09-07T12:34:59;28.60;78.50
24250;DHT22;12379;49.820;8.648;2023-09-07T12:41:20;28.70;77.60
24250;DHT22;12379;49.820;8.648;2023-09-07T12:43:46;28.80;76.50
24250;DHT22;12379;49.820;8.648;2023-09-07T12:46:15;28.90;75.40
24250;DHT22;12379;49.820;8.648;2023-09-07T12:48:44;28.90;74.70
24250;DHT22;12379;49.820;8.648;2023-09-07T12:56:51;29.10;74.70
24250;DHT22;12379;49.820;8.648;2023-09-07T12:59:18;29.20;74.10
24250;DHT22;12379;49.820;8.648;2023-09-07T13:01:46;29.10;71.50
24250;DHT22;12379;49.820;8.648;2023-09-07T13:04:19;29.00;72.80
24250;DHT22;12379;49.820;8.648;2023-09-07T13:06:45;29.10;73.30
24250;DHT22;12379;49.820;8.648;2023-09-07T13:11:47;29.20;73.40
24250;DHT22;12379;49.820;8.648;2023-09-07T13:16:51;29.30;71.30
24250;DHT22;12379;49.820;8.648;2023-09-07T13:19:18;29.30;73.20
24250;DHT22;12379;49.820;8.648;2023-09-07T13:21:46;29.50;72.70
24250;DHT22;12379;49.820;8.648;2023-09-07T13:24:15;29.60;70.80
24250;DHT22;12379;49.820;8.648;2023-09-07T13:26:42;29.60;70.40
24250;DHT22;12379;49.820;8.648;2023-09-07T13:29:11;29.50;69.40
24250;DHT22;12379;49.820;8.648;2023-09-07T13:31:37;29.60;69.90
24250;DHT22;12379;49.820;8.648;2023-09-07T13:34:05;29.50;70.00
24250;DHT22;12379;49.820;8.648;2023-09-07T13:36:31;29.60;69.20
24250;DHT22;12379;49.820;8.648;2023-09-07T13:38:57;29.50;69.80
24250;DHT22;12379;49.820;8.648;2023-09-07T13:44:05;29.60;70.30
24250;DHT22;12379;49.820;8.648;2023-09-07T13:46:33;29.50;69.90
24250;DHT22;12379;49.820;8.648;2023-09-07T13:49:00;29.50;69.00
24250;DHT22;12379;49.820;8.648;2023-09-07T13:51:26;29.60;70.20
24250;DHT22;12379;49.820;8.648;2023-09-07T13:53:51;29.60;69.30
24250;DHT22;12379;49.820;8.648;2023-09-07T13:56:20;29.80;68.80
24250;DHT22;12379;49.820;8.648;2023-09-07T13:58:46;29.80;67.60
24250;DHT22;12379;49.820;8.648;2023-09-07T14:01:11;29.80;68.30
24250;DHT22;12379;49.820;8.648;2023-09-07T14:03:37;29.80;69.50
24250;DHT22;12379;49.820;8.648;2023-09-07T14:06:02;29.90;69.10
24250;DHT22;12379;49.820;8.648;2023-09-07T14:08:28;29.90;70.20
24250;DHT22;12379;49.820;8.648;2023-09-07T14:10:56;30.00;67.70
24250;DHT22;12379;49.820;8.648;2023-09-07T14:13:21;30.00;66.40
24250;DHT22;12379;49.820;8.648;2023-09-07T14:15:47;30.10;65.70
24250;DHT22;12379;49.820;8.648;2023-09-07T14:18:12;30.10;65.00
24250;DHT22;12379;49.820;8.648;2023-09-07T14:20:38;30.10;67.00
24250;DHT22;12379;49.820;8.648;2023-09-07T14:23:04;30.10;66.90
24250;DHT22;12379;49.820;8.648;2023-09-07T14:25:30;30.20;65.60
24250;DHT22;12379;49.820;8.648;2023-09-07T14:27:55;30.30;64.40
24250;DHT22;12379;49.820;8.648;2023-09-07T14:30:21;30.30;65.30
24250;DHT22;12379;49.820;8.648;2023-09-07T14:32:47;30.20;64.10
24250;DHT22;12379;49.820;8.648;2023-09-07T14:35:14;30.10;65.20
24250;DHT22;12379;49.820;8.648;2023-09-07T14:37:40;30.10;65.10
24250;DHT22;12379;49.820;8.648;2023-09-07T14:40:07;30.20;64.40
24250;DHT22;12379;49.820;8.648;2023-09-07T14:42:33;30.10;64.00
24250;DHT22;12379;49.820;8.648;2023-09-07T14:44:59;30.10;64.30
24250;DHT22;12379;49.820;8.648;2023-09-07T14:47:28;30.10;63.80
24250;DHT22;12379;49.820;8.648;2023-09-07T14:49:54;30.10;64.40
24250;DHT22;12379;49.820;8.648;2023-09-07T14:52:19;30.10;64.50
24250;DHT22;12379;49.820;8.648;2023-09-07T14:54:47;30.20;63.90
24250;DHT22;12379;49.820;8.648;2023-09-07T14:57:13;30.20;63.50
24250;DHT22;12379;49.820;8.648;2023-09-07T14:59:39;30.10;64.20
24250;DHT22;12379;49.820;8.648;2023-09-07T15:02:05;30.10;64.80
24250;DHT22;12379;49.820;8.648;2023-09-07T15:04:32;30.10;65.20
24250;DHT22;12379;49.820;8.648;2023-09-07T15:06:57;30.10;64.70
24250;DHT22;12379;49.820;8.648;2023-09-07T15:09:23;30.20;64.40
24250;DHT22;12379;49.820;8.648;2023-09-07T15:11:48;30.10;65.60
24250;DHT22;12379;49.820;8.648;2023-09-07T15:14:14;30.10;65.50
24250;DHT22;12379;49.820;8.648;2023-09-07T15:16:39;30.00;65.90
24250;DHT22;12379;49.820;8.648;2023-09-07T15:19:05;30.00;65.80
24250;DHT22;12379;49.820;8.648;2023-09-07T15:21:31;30.00;65.80
24250;DHT22;12379;49.820;8.648;2023-09-07T15:23:56;30.10;64.50
24250;DHT22;12379;49.820;8.648;2023-09-07T15:26:22;30.10;64.70
24250;DHT22;12379;49.820;8.648;2023-09-07T15:28:49;30.00;66.30
24250;DHT22;12379;49.820;8.648;2023-09-07T15:31:14;29.90;65.40
24250;DHT22;12379;49.820;8.648;2023-09-07T15:33:40;29.80;66.10
24250;DHT22;12379;49.820;8.648;2023-09-07T15:36:06;29.90;65.20
24250;DHT22;12379;49.820;8.648;2023-09-07T15:38:31;29.90;65.00
24250;DHT22;12379;49.820;8.648;2023-09-07T15:40:57;30.00;63.90
24250;DHT22;12379;49.820;8.648;2023-09-07T15:43:24;30.00;64.70
24250;DHT22;12379;49.820;8.648;2023-09-07T15:45:52;30.00;64.70
24250;DHT22;12379;49.820;8.648;2023-09-07T15:48:18;29.90;66.30
24250;DHT22;12379;49.820;8.648;2023-09-07T15:50:43;29.80;66.40
24250;DHT22;12379;49.820;8.648;2023-09-07T15:53:09;29.80;67.10
24250;DHT22;12379;49.820;8.648;2023-09-07T15:55:34;29.70;67.40
24250;DHT22;12379;49.820;8.648;2023-09-07T15:58:00;29.70;66.50
24250;DHT22;12379;49.820;8.648;2023-09-07T16:00:25;29.70;66.70
24250;DHT22;12379;49.820;8.648;2023-09-07T16:02:51;29.70;66.90
24250;DHT22;12379;49.820;8.648;2023-09-07T16:05:17;29.70;68.50
24250;DHT22;12379;49.820;8.648;2023-09-07T16:07:42;29.60;69.40